Time;durP1;ratioP1;P1;durP2;ratioP2;P2;SDS_P1;SDS_P2;PMS_P1;PMS_P2;Temp;Humidity;BMP_temperature;BMP_pressure;BME280_temperature;BME280_humidity;BME280_pressure;Samples;Min_cycle;Max_cycle;Signal;HPM_P1;HPM_P2
2022/03/07 00:02:14;;;;;;;24.60;11.80;;;;;;;-1.50;62.11;100037.81;4433204;32;35514;-80
2022/03/07 00:05:01;;;;;;;21.25;12.80;;;;;;;-1.23;61.37;100029.44;4430646;32;34291;-80
2022/03/07 00:07:47;;;;;;;20.50;11.10;;;;;;;-1.71;62.53;100035.50;4434910;32;34578;-80
2022/03/07 00:10:34;;;;;;;21.50;11.82;;;;;;;-1.54;62.42;100047.34;4427012;32;35013;-78
2022/03/07 00:13:21;;;;;;;19.52;10.15;;;;;;;-1.82;63.27;100043.28;4422422;32;34233;-78
2022/03/07 00:16:07;;;;;;;22.10;12.15;;;;;;;-1.72;62.83;100044.63;4436399;32;35148;-80
2022/03/07 00:18:53;;;;;;;22.55;10.52;;;;;;;-1.69;62.70;100042.31;4439717;32;34645;-80
2022/03/07 00:21:40;;;;;;;22.37;11.35;;;;;;;-1.49;62.12;100038.62;4440366;32;35695;-80
2022/03/07 00:24:26;;;;;;;19.85;10.77;;;;;;;-1.83;63.04;100049.66;4430443;32;35338;-80
2022/03/07 00:27:13;;;;;;;23.25;11.35;;;;;;;-1.77;63.16;100047.16;4426318;32;34236;-80
2022/03/07 00:29:59;;;;;;;23.17;10.50;;;;;;;-1.65;62.53;100050.75;4430451;32;34633;-80
2022/03/07 00:32:47;;;;;;;21.48;10.52;;;;;;;-1.72;62.86;100047.31;4434479;32;32952;-80
2022/03/07 00:35:34;;;;;;;23.08;12.98;;;;;;;-1.76;63.07;100055.00;4432618;32;35029;-79
2022/03/07 00:38:20;;;;;;;20.73;11.15;;;;;;;-1.76;62.72;100046.12;4436786;32;33818;-80
2022/03/07 00:41:08;;;;;;;24.48;12.32;;;;;;;-1.91;63.67;100051.81;4423566;32;34209;-78
2022/03/07 00:43:54;;;;;;;23.92;12.32;;;;;;;-1.88;63.61;100049.53;4434322;32;35962;-77
2022/03/07 00:46:41;;;;;;;25.50;10.77;;;;;;;-1.87;63.35;100053.84;4433065;32;34573;-79
2022/03/07 00:49:28;;;;;;;23.83;10.85;;;;;;;-1.65;62.78;100042.69;4432937;32;35195;-79
2022/03/07 00:52:15;;;;;;;22.20;11.95;;;;;;;-1.70;63.03;100038.00;4437014;32;35714;-78
2022/03/07 00:55:02;;;;;;;21.33;10.68;;;;;;;-2.00;64.06;100037.81;4434143;32;34932;-79
2022/03/07 00:57:48;;;;;;;25.02;11.20;;;;;;;-1.88;63.78;100041.47;4431143;32;35188;-80
2022/03/07 01:00:40;;;;;;;25.88;11.50;;;;;;;-1.59;63.11;100041.84;4433018;32;33940;-79
2022/03/07 01:03:26;;;;;;;22.33;11.20;;;;;;;-1.90;63.80;100042.72;4427813;32;34233;-79
2022/03/07 01:06:14;;;;;;;25.85;13.50;;;;;;;-1.76;63.84;100043.44;4433130;32;35424;-80
2022/03/07 01:09:00;;;;;;;23.38;12.07;;;;;;;-1.82;63.89;100035.22;4434453;32;35128;-79
2022/03/07 01:11:48;;;;;;;23.38;11.30;;;;;;;-1.81;63.47;100036.84;4432612;32;33718;-80
2022/03/07 01:14:35;;;;;;;21.27;10.95;;;;;;;-1.93;63.98;100041.28;4433615;32;35322;-79
2022/03/07 01:17:22;;;;;;;23.87;10.85;;;;;;;-1.78;63.67;100037.47;4434400;32;35014;-79
2022/03/07 01:20:09;;;;;;;20.23;9.93;;;;;;;-1.95;64.46;100039.88;4433629;32;35315;-80
2022/03/07 01:22:56;;;;;;;23.25;11.27;;;;;;;-1.72;63.60;100033.87;4432435;32;35197;-80
2022/03/07 01:25:42;;;;;;;23.25;10.93;;;;;;;-1.34;61.83;100041.75;4433866;32;34622;-79
2022/03/07 01:28:29;;;;;;;23.25;11.35;;;;;;;-1.30;62.41;100036.78;4437330;32;34690;-80
2022/03/07 01:31:15;;;;;;;23.20;11.48;;;;;;;-1.13;60.89;100037.81;4438087;32;34221;-79
2022/03/07 01:34:02;;;;;;;21.75;11.90;;;;;;;-1.51;62.02;100036.13;4433776;32;34262;-79
2022/03/07 01:36:48;;;;;;;21.12;11.02;;;;;;;-1.89;63.37;100023.69;4447681;32;35249;-80
2022/03/07 01:39:34;;;;;;;24.17;11.40;;;;;;;-1.84;63.49;100023.84;4447835;32;34845;-80
2022/03/07 01:42:21;;;;;;;27.58;12.15;;;;;;;-1.60;63.04;100022.16;4447496;32;35505;-80
2022/03/07 01:45:14;;;;;;;19.62;10.73;;;;;;;-1.14;61.46;100020.03;4446595;32;33524;-80
2022/03/07 01:48:01;;;;;;;22.58;11.00;;;;;;;-0.71;59.96;100024.50;4445487;32;33418;-80
2022/03/07 01:50:48;;;;;;;24.17;11.02;;;;;;;-0.51;59.20;100027.72;4435663;32;34899;-80
2022/03/07 01:53:35;;;;;;;23.40;11.45;;;;;;;-0.95;60.41;100027.03;4449795;32;35238;-80
2022/03/07 01:56:21;;;;;;;22.67;11.15;;;;;;;-1.42;61.91;100024.06;4447645;32;33971;-80
2022/03/07 01:59:11;;;;;;;22.77;11.82;;;;;;;-1.28;61.10;100015.84;4434504;32;33722;-80
2022/03/07 02:01:58;;;;;;;23.80;11.52;;;;;;;-1.86;63.08;100023.25;4435265;32;34969;-79
2022/03/07 02:04:46;;;;;;;23.83;12.63;;;;;;;-1.68;62.12;100024.31;4436255;32;34628;-79
2022/03/07 02:07:32;;;;;;;23.92;10.93;;;;;;;-1.87;63.54;100026.16;4435727;32;34131;-79
2022/03/07 02:10:19;;;;;;;22.10;11.45;;;;;;;-1.28;61.64;100029.28;4433709;32;35353;-79
2022/03/07 02:13:13;;;;;;;22.40;11.27;;;;;;;-1.50;62.44;100020.88;4445653;32;35001;-79
2022/03/07 02:16:00;;;;;;;23.65;12.15;;;;;;;-1.57;62.44;100015.53;4447802;32;34566;-80
2022/03/07 02:18:47;;;;;;;22.75;10.23;;;;;;;-1.65;62.15;100026.56;4446529;32;34279;-79
2022/03/07 02:21:35;;;;;;;23.15;11.60;;;;;;;-1.38;61.76;100024.44;4434739;32;34659;-80
2022/03/07 02:24:22;;;;;;;23.60;11.32;;;;;;;-1.96;63.11;100017.56;4433272;32;34916;-80
2022/03/07 02:27:12;;;;;;;23.58;11.60;;;;;;;-1.74;62.74;100020.66;4448048;32;34266;-80
2022/03/07 02:30:05;;;;;;;23.42;11.80;;;;;;;-2.01;63.29;100017.41;4435612;32;34668;-79
2022/03/07 02:32:51;;;;;;;23.42;10.68;;;;;;;-1.99;64.19;100017.16;4446344;32;35392;-79
2022/03/07 02:35:38;;;;;;;24.67;12.02;;;;;;;-2.23;64.90;100010.75;4432728;32;108851;-79
2022/03/07 02:38:25;;;;;;;22.67;11.95;;;;;;;-1.87;64.23;100020.78;4436352;32;34350;-79
2022/03/07 02:41:13;;;;;;;23.80;11.65;;;;;;;-1.91;63.24;100015.03;4448311;32;35310;-79
2022/03/07 02:44:06;;;;;;;21.67;10.57;;;;;;;-1.83;63.79;100022.81;4448240;32;35631;-78
2022/03/07 02:46:52;;;;;;;24.37;11.80;;;;;;;-1.98;64.21;100025.00;4448081;32;34937;-79
2022/03/07 02:49:38;;;;;;;23.65;10.80;;;;;;;-1.44;62.32;100026.16;4426498;32;34264;-78
2022/03/07 02:52:25;;;;;;;24.27;11.60;;;;;;;-1.55;62.19;100026.91;4436586;32;34146;-78
2022/03/07 02:55:11;;;;;;;23.38;11.73;;;;;;;-1.88;63.47;100027.19;4449154;32;34617;-78
2022/03/07 02:57:58;;;;;;;24.87;12.48;;;;;;;-2.02;63.73;100034.56;4436258;32;35061;-78
2022/03/07 03:00:44;;;;;;;23.62;11.50;;;;;;;-1.83;63.57;100038.91;4436198;32;34778;-77
2022/03/07 03:03:30;;;;;;;24.08;12.43;;;;;;;-1.98;63.98;100041.13;4448351;32;33889;-78
2022/03/07 03:06:17;;;;;;;26.33;14.87;;;;;;;-2.44;65.58;100036.09;4436985;32;34689;-78
2022/03/07 03:09:03;;;;;;;27.37;11.98;;;;;;;-2.72;66.72;100038.09;4448248;32;35648;-78
2022/03/07 03:11:50;;;;;;;26.85;12.60;;;;;;;-2.51;66.53;100041.47;4446393;32;35143;-78
2022/03/07 03:14:37;;;;;;;23.02;11.65;;;;;;;-2.24;65.64;100046.69;4447776;32;33986;-77
2022/03/07 03:17:24;;;;;;;27.33;13.40;;;;;;;-1.85;64.26;100045.53;4447156;32;34232;-78
2022/03/07 03:20:12;;;;;;;24.12;12.40;;;;;;;-2.69;67.04;100039.53;4448767;32;35589;-78
2022/03/07 03:22:58;;;;;;;29.05;12.80;;;;;;;-2.23;66.12;100043.78;4447937;32;34609;-78
2022/03/07 03:25:45;;;;;;;25.48;12.23;;;;;;;-2.13;65.87;100052.19;4448526;32;33912;-78
2022/03/07 03:28:31;;;;;;;27.02;12.95;;;;;;;-2.23;66.37;100057.19;4447839;32;34541;-78
2022/03/07 03:31:18;;;;;;;28.15;12.77;;;;;;;-2.61;67.66;100059.94;4435329;32;34513;-78
2022/03/07 03:34:04;;;;;;;23.85;11.73;;;;;;;-2.63;67.82;100062.81;4436467;32;35404;-79
2022/03/07 03:36:51;;;;;;;27.10;13.10;;;;;;;-2.36;66.21;100052.75;4435810;32;33935;-78
2022/03/07 03:39:37;;;;;;;27.92;13.05;;;;;;;-2.56;67.30;100057.41;4435481;32;34691;-78
2022/03/07 03:42:23;;;;;;;25.25;12.10;;;;;;;-2.36;66.54;100054.59;4447260;32;34814;-79
2022/03/07 03:45:11;;;;;;;25.02;11.70;;;;;;;-2.60;67.53;100056.19;4448314;32;34923;-79
2022/03/07 03:47:57;;;;;;;26.60;12.30;;;;;;;-2.40;66.84;100066.81;4435482;32;34236;-77
2022/03/07 03:50:43;;;;;;;27.20;12.02;;;;;;;-2.40;66.74;100064.94;4446437;32;33657;-78
2022/03/07 03:53:30;;;;;;;27.10;14.32;;;;;;;-2.44;67.55;100066.44;4446565;32;35583;-78
2022/03/07 03:56:16;;;;;;;24.45;11.55;;;;;;;-2.72;67.97;100069.47;4447756;32;34600;-78
2022/03/07 03:59:03;;;;;;;26.58;13.10;;;;;;;-2.05;65.32;100068.03;4447181;32;34306;-78
2022/03/07 04:01:49;;;;;;;25.73;12.10;;;;;;;-2.18;65.26;100061.94;4435743;32;34699;-78
2022/03/07 04:04:36;;;;;;;28.55;13.50;;;;;;;-1.82;64.39;100070.13;4448003;32;35139;-78
2022/03/07 04:07:24;;;;;;;27.10;14.15;;;;;;;-2.52;66.90;100054.06;4446779;32;34598;-76
2022/03/07 04:10:13;;;;;;;29.17;13.15;;;;;;;-2.74;67.66;100060.78;4435787;32;34243;-78
2022/03/07 04:12:59;;;;;;;27.98;13.15;;;;;;;-2.60;67.44;100061.56;4446010;32;35561;-78
2022/03/07 04:15:47;;;;;;;27.60;13.77;;;;;;;-2.22;66.09;100058.88;4446731;32;34674;-78
2022/03/07 04:18:34;;;;;;;28.10;12.77;;;;;;;-2.39;66.19;100061.25;4446612;32;34647;-78
2022/03/07 04:21:20;;;;;;;26.42;12.75;;;;;;;-2.26;65.75;100052.28;4436104;32;35033;-78
2022/03/07 04:24:08;;;;;;;26.65;12.77;;;;;;;-2.30;65.91;100057.25;4434715;32;35522;-78
2022/03/07 04:26:54;;;;;;;26.37;13.10;;;;;;;-2.39;65.77;100049.66;4447297;32;34994;-78
2022/03/07 04:29:41;;;;;;;27.17;12.52;;;;;;;-2.37;66.41;100055.66;4446649;32;34542;-78
2022/03/07 04:32:28;;;;;;;27.27;12.93;;;;;;;-1.91;64.62;100065.22;4446396;32;34204;-78
2022/03/07 04:35:15;;;;;;;29.63;13.90;;;;;;;-1.98;64.36;100067.97;4444129;32;35302;-78
2022/03/07 04:38:01;;;;;;;27.62;12.65;;;;;;;-2.32;65.48;100066.56;4435999;32;34738;-79
2022/03/07 04:40:48;;;;;;;26.52;13.30;;;;;;;-2.01;64.55;100067.59;4420919;32;36187;-77
2022/03/07 04:43:34;;;;;;;29.20;13.25;;;;;;;-2.49;66.31;100060.87;4420510;32;34191;-78
2022/03/07 04:46:20;;;;;;;27.08;12.80;;;;;;;-2.12;65.28;100066.44;4430898;32;34599;-77
2022/03/07 04:49:10;;;;;;;26.62;13.20;;;;;;;-2.37;66.14;100067.19;4431363;32;34974;-78
2022/03/07 04:51:56;;;;;;;29.42;13.65;;;;;;;-2.27;65.29;100062.19;4433351;32;35542;-78
2022/03/07 04:54:42;;;;;;;25.88;13.35;;;;;;;-2.54;66.33;100072.25;4417519;32;34405;-78
2022/03/07 04:57:28;;;;;;;29.80;13.88;;;;;;;-2.61;66.44;100062.59;4430284;32;34540;-78
2022/03/07 05:00:16;;;;;;;28.10;14.10;;;;;;;-2.84;67.28;100063.13;4430755;32;35515;-77
2022/03/07 05:03:02;;;;;;;26.50;13.35;;;;;;;-2.51;66.54;100068.31;4433850;32;35151;-78
2022/03/07 05:05:49;;;;;;;27.92;13.62;;;;;;;-1.85;64.61;100067.03;4420527;32;35158;-78
2022/03/07 05:08:38;;;;;;;26.20;13.23;;;;;;;-1.16;61.84;100060.59;4424717;32;35232;-78
2022/03/07 05:11:24;;;;;;;30.23;13.75;;;;;;;-1.65;62.86;100066.88;4437226;32;35822;-77
2022/03/07 05:14:10;;;;;;;29.37;13.98;;;;;;;-2.49;65.93;100064.37;4424751;32;34102;-77
2022/03/07 05:16:57;;;;;;;27.60;12.68;;;;;;;-2.45;66.24;100072.00;4442094;32;35238;-78
2022/03/07 05:19:45;;;;;;;29.08;13.88;;;;;;;-2.08;65.03;100070.31;4434716;32;35202;-78
2022/03/07 05:22:31;;;;;;;28.52;13.00;;;;;;;-2.36;65.91;100076.06;4430378;32;34964;-77
2022/03/07 05:25:19;;;;;;;31.33;14.05;;;;;;;-2.50;66.55;100070.78;4439364;32;36350;-77
2022/03/07 05:28:05;;;;;;;26.65;13.32;;;;;;;-2.00;65.38;100070.06;4437001;32;34075;-77
2022/03/07 05:30:52;;;;;;;30.70;14.27;;;;;;;-2.34;65.74;100072.13;4432633;32;34627;-77
2022/03/07 05:33:38;;;;;;;28.45;13.10;;;;;;;-2.51;66.77;100073.69;4442591;32;34558;-77
2022/03/07 05:36:25;;;;;;;29.12;13.95;;;;;;;-2.11;65.90;100078.81;4436507;32;36138;-77
2022/03/07 05:39:11;;;;;;;28.23;14.10;;;;;;;-1.79;65.18;100078.78;4427186;32;33965;-77
2022/03/07 05:41:57;;;;;;;28.10;12.98;;;;;;;-2.26;66.10;100069.19;4433137;32;34663;-77
2022/03/07 05:44:43;;;;;;;25.42;13.23;;;;;;;-1.82;64.83;100077.37;4433302;32;36205;-77
2022/03/07 05:47:29;;;;;;;29.65;14.20;;;;;;;-2.09;66.16;100072.19;4434232;32;35497;-76
2022/03/07 05:50:16;;;;;;;28.58;13.50;;;;;;;-1.49;64.10;100076.25;4434322;32;33915;-72
2022/03/07 05:53:03;;;;;;;23.95;12.32;;;;;;;-1.55;64.31;100083.31;4420217;32;34228;-70
2022/03/07 05:55:50;;;;;;;27.73;14.13;;;;;;;-1.13;62.48;100078.16;4432216;32;34815;-71
2022/03/07 05:58:36;;;;;;;29.52;13.85;;;;;;;-1.43;63.83;100078.88;4433421;32;35120;-71
2022/03/07 06:01:22;;;;;;;29.02;14.70;;;;;;;-1.49;63.15;100082.44;4433163;32;34216;-71
2022/03/07 06:04:09;;;;;;;27.98;13.90;;;;;;;-2.39;66.15;100085.41;4439959;32;35489;-71
2022/03/07 06:06:56;;;;;;;29.02;13.85;;;;;;;-1.84;64.25;100079.44;4432653;32;35026;-71
2022/03/07 06:09:42;;;;;;;28.02;14.20;;;;;;;-1.94;64.95;100079.91;4421339;32;34715;-71
2022/03/07 06:12:28;;;;;;;26.90;13.23;;;;;;;-2.04;65.28;100087.66;4422086;32;34763;-72
2022/03/07 06:15:15;;;;;;;30.83;14.15;;;;;;;-2.11;65.97;100076.94;4434448;32;34284;-72
2022/03/07 06:18:01;;;;;;;30.33;14.75;;;;;;;-2.44;67.69;100085.22;4433104;32;34944;-72
2022/03/07 06:20:48;;;;;;;32.38;14.98;;;;;;;-2.58;66.91;100094.37;4420464;32;35649;-72
2022/03/07 06:23:36;;;;;;;31.90;15.18;;;;;;;-2.47;67.75;100091.00;4424633;32;34111;-72
2022/03/07 06:26:23;;;;;;;35.20;15.27;;;;;;;-2.96;69.77;100097.78;4421071;32;34659;-72
2022/03/07 06:29:10;;;;;;;27.23;13.62;;;;;;;-2.98;70.48;100099.88;4433224;32;34557;-72
2022/03/07 06:31:56;;;;;;;26.77;14.48;;;;;;;-2.91;70.51;100098.00;4436689;32;35535;-71
2022/03/07 06:34:43;;;;;;;32.70;15.52;;;;;;;-3.08;70.19;100112.91;4429799;32;34195;-70
2022/03/07 06:37:29;;;;;;;29.98;13.73;;;;;;;-3.04;70.75;100104.22;4432275;32;35500;-71
2022/03/07 06:40:17;;;;;;;29.55;13.62;;;;;;;-2.52;69.00;100104.25;4420644;32;35064;-72
2022/03/07 06:43:04;;;;;;;29.40;13.90;;;;;;;-2.41;68.58;100098.19;4439812;32;35480;-71
2022/03/07 06:45:51;;;;;;;31.80;14.80;;;;;;;-1.89;66.37;100106.94;4437842;32;34850;-71
2022/03/07 06:48:37;;;;;;;35.47;15.35;;;;;;;-1.97;67.00;100103.72;4433770;32;34608;-71
2022/03/07 06:51:24;;;;;;;32.83;15.35;;;;;;;-1.53;64.83;100105.44;4432690;32;34908;-71
2022/03/07 06:54:10;;;;;;;29.12;13.60;;;;;;;-2.26;67.39;100104.09;4431947;32;35871;-71
2022/03/07 06:56:56;;;;;;;29.10;14.27;;;;;;;-2.03;67.17;100108.09;4431677;32;34270;-71
2022/03/07 06:59:43;;;;;;;34.15;14.77;;;;;;;-2.30;67.74;100112.81;4429946;32;35198;-71
2022/03/07 07:02:29;;;;;;;34.58;15.25;;;;;;;-2.16;68.02;100105.47;4434369;32;34946;-71
2022/03/07 07:05:16;;;;;;;31.02;14.82;;;;;;;-2.11;67.50;100111.03;4420762;32;34365;-71
2022/03/07 07:08:02;;;;;;;30.40;15.35;;;;;;;-1.68;66.06;100105.78;4430024;32;33887;-71
2022/03/07 07:10:49;;;;;;;31.75;15.65;;;;;;;-1.83;65.76;100114.13;4419468;32;35531;-72
2022/03/07 07:13:35;;;;;;;30.50;14.48;;;;;;;-1.41;65.17;100111.72;4431393;32;34924;-72
2022/03/07 07:16:22;;;;;;;30.70;14.45;;;;;;;-1.05;63.25;100103.91;4419215;32;34894;-73
2022/03/07 07:19:08;;;;;;;32.20;15.32;;;;;;;-0.79;62.59;100114.41;4432553;32;34162;-73
2022/03/07 07:21:54;;;;;;;30.50;14.93;;;;;;;-1.37;64.89;100110.25;4440267;32;33634;-73
2022/03/07 07:24:41;;;;;;;30.27;15.13;;;;;;;-1.31;63.61;100111.25;4420153;32;34579;-73
2022/03/07 07:27:28;;;;;;;27.27;13.60;;;;;;;-1.43;63.97;100116.50;4420510;32;34688;-73
2022/03/07 07:30:15;;;;;;;28.60;14.45;;;;;;;-0.81;62.30;100115.69;4431110;32;33836;-72
2022/03/07 07:33:01;;;;;;;35.35;15.70;;;;;;;-1.41;63.38;100117.09;4438448;32;34286;-72
2022/03/07 07:35:47;;;;;;;33.38;14.82;;;;;;;-1.12;62.85;100124.69;4439989;32;34596;-72
2022/03/07 07:38:34;;;;;;;31.80;14.82;;;;;;;-1.43;63.82;100135.31;4421405;32;33468;-73
2022/03/07 07:41:20;;;;;;;32.10;15.23;;;;;;;-1.22;62.88;100142.16;4419929;32;33735;-72
2022/03/07 07:44:07;;;;;;;29.37;15.13;;;;;;;-1.39;63.81;100141.09;4430569;32;34636;-71
2022/03/07 07:46:54;;;;;;;27.17;13.45;;;;;;;-1.21;61.16;100143.00;4430369;32;34466;-70
2022/03/07 07:49:40;;;;;;;28.95;13.55;;;;;;;-1.30;62.71;100144.31;4430679;32;35292;-70
2022/03/07 07:52:26;;;;;;;29.60;13.90;;;;;;;-0.71;61.12;100138.34;4430117;32;34279;-72
2022/03/07 07:55:12;;;;;;;26.98;13.77;;;;;;;-0.20;59.25;100136.22;4430424;32;35450;-72
2022/03/07 07:57:58;;;;;;;30.65;15.50;;;;;;;-0.41;59.89;100144.81;4430208;32;33272;-72
2022/03/07 08:00:45;;;;;;;31.17;14.07;;;;;;;-1.76;64.05;100153.59;4431940;32;35037;-72
2022/03/07 08:03:32;;;;;;;28.17;14.27;;;;;;;-1.27;62.46;100151.94;4430683;32;34125;-72
2022/03/07 08:06:18;;;;;;;27.90;13.88;;;;;;;-0.80;60.41;100160.34;4428942;32;34129;-72
2022/03/07 08:09:04;;;;;;;29.10;14.50;;;;;;;-1.33;62.74;100171.66;4430792;32;36623;-72
2022/03/07 08:11:51;;;;;;;29.60;15.25;;;;;;;-1.02;62.10;100171.56;4432161;32;35464;-72
2022/03/07 08:14:37;;;;;;;31.20;14.63;;;;;;;-1.59;63.04;100173.50;4440311;32;34625;-72
2022/03/07 08:17:23;;;;;;;29.58;15.90;;;;;;;-1.47;63.47;100177.13;4418281;32;35557;-73
2022/03/07 08:20:10;;;;;;;26.98;12.63;;;;;;;-1.46;63.26;100178.75;4422236;32;34540;-72
2022/03/07 08:22:57;;;;;;;31.27;16.58;;;;;;;-1.65;64.29;100177.03;4430820;32;34659;-72
2022/03/07 08:25:43;;;;;;;29.85;14.43;;;;;;;-2.02;65.83;100176.88;4440589;32;33758;-72
2022/03/07 08:28:29;;;;;;;27.33;13.38;;;;;;;-1.40;63.66;100180.56;4430644;32;34248;-72
2022/03/07 08:31:16;;;;;;;28.87;15.68;;;;;;;-1.69;64.83;100173.97;4429819;32;35639;-72
2022/03/07 08:34:03;;;;;;;27.45;13.25;;;;;;;-1.84;64.70;100171.59;4437965;32;34644;-71
2022/03/07 08:36:49;;;;;;;29.75;14.02;;;;;;;-1.39;63.71;100168.78;4431625;32;34845;-72
2022/03/07 08:39:36;;;;;;;32.60;15.60;;;;;;;-1.05;61.54;100147.81;4417985;32;33430;-71
2022/03/07 08:42:22;;;;;;;34.17;15.13;;;;;;;-1.79;63.30;100151.31;4419238;32;34930;-72
2022/03/07 08:45:09;;;;;;;26.58;13.02;;;;;;;-1.36;62.48;100141.47;4429077;32;35235;-71
2022/03/07 08:47:56;;;;;;;27.62;13.52;;;;;;;-0.99;62.49;100135.34;4418579;32;34950;-72
2022/03/07 08:50:43;;;;;;;30.23;14.73;;;;;;;-1.02;61.36;100136.59;4430801;32;34693;-73
2022/03/07 08:53:29;;;;;;;26.10;13.43;;;;;;;-0.63;60.47;100141.75;4428974;32;34955;-72
2022/03/07 08:56:15;;;;;;;30.77;14.85;;;;;;;-0.08;59.63;100141.69;4431459;32;34575;-71
2022/03/07 08:59:17;;;;;;;37.40;19.58;;;;;;;-0.33;59.68;100144.50;4432524;32;34269;-72
2022/03/07 09:02:04;;;;;;;42.42;21.98;;;;;;;-0.28;59.66;100142.78;4433051;32;34459;-72
2022/03/07 09:04:50;;;;;;;33.47;16.58;;;;;;;-0.69;60.66;100157.75;4412022;32;34461;-72
2022/03/07 09:07:36;;;;;;;27.50;15.38;;;;;;;-0.62;61.02;100146.91;4420170;32;35721;-71
2022/03/07 09:10:23;;;;;;;38.58;20.05;;;;;;;-0.48;59.38;100148.41;4431940;32;33889;-72
2022/03/07 09:13:09;;;;;;;27.62;13.43;;;;;;;-0.47;59.48;100150.03;4432548;32;34545;-72
2022/03/07 09:15:56;;;;;;;28.25;13.88;;;;;;;-0.09;57.94;100143.53;4420377;32;34935;-73
2022/03/07 09:18:42;;;;;;;30.67;15.18;;;;;;;-0.13;58.58;100142.34;4420712;32;34262;-72
2022/03/07 09:21:29;;;;;;;27.37;15.45;;;;;;;-0.19;58.13;100137.88;4432519;32;34921;-73
2022/03/07 09:24:15;;;;;;;27.40;14.57;;;;;;;-0.28;57.92;100141.94;4432153;32;35452;-73
2022/03/07 09:27:01;;;;;;;30.40;15.63;;;;;;;-0.33;58.46;100139.13;4432753;32;36330;-72
2022/03/07 09:29:47;;;;;;;25.55;12.18;;;;;;;-0.33;59.06;100137.25;4409403;32;34633;-73
2022/03/07 09:32:34;;;;;;;28.62;13.77;;;;;;;-0.36;59.24;100136.88;4419001;32;35192;-73
2022/03/07 09:35:21;;;;;;;27.73;14.10;;;;;;;-0.54;59.94;100135.84;4422197;32;35350;-74
2022/03/07 09:38:07;;;;;;;28.02;15.00;;;;;;;0.17;57.82;100133.41;4432066;32;34896;-72
2022/03/07 09:40:54;;;;;;;28.52;14.05;;;;;;;-0.07;58.59;100133.34;4433071;32;35529;-73
2022/03/07 09:43:41;;;;;;;34.83;14.57;;;;;;;-0.18;59.13;100133.31;4430327;32;33925;-72
2022/03/07 09:46:27;;;;;;;29.40;14.82;;;;;;;-0.39;59.49;100140.03;4429900;32;34630;-72
2022/03/07 09:49:13;;;;;;;28.87;14.68;;;;;;;-0.29;59.56;100138.41;4431527;32;34994;-74
2022/03/07 09:52:00;;;;;;;27.15;14.80;;;;;;;-0.02;58.40;100136.19;4432472;32;34628;-71
2022/03/07 09:54:47;;;;;;;26.10;13.02;;;;;;;-0.34;59.54;100134.75;4431572;32;34881;-71
2022/03/07 09:57:34;;;;;;;27.85;16.80;;;;;;;0.50;57.40;100129.41;4431179;32;35131;-71
2022/03/07 10:00:20;;;;;;;27.73;13.02;;;;;;;-0.34;58.81;100132.06;4431260;32;34997;-73
2022/03/07 10:03:13;;;;;;;29.92;14.30;;;;;;;-0.33;59.52;100139.13;4432548;32;34616;-72
2022/03/07 10:05:59;;;;;;;27.87;14.35;;;;;;;0.10;58.63;100143.50;4430065;32;34386;-73
2022/03/07 10:08:54;;;;;;;27.02;14.48;;;;;;;-0.33;58.72;100131.03;4431834;32;34365;-73
2022/03/07 10:11:56;;;;;;;31.42;16.80;;;;;;;-0.18;58.25;100136.81;4441973;32;36827;-72
2022/03/07 10:14:45;;;;;;;25.88;13.98;;;;;;;-0.31;59.30;100134.34;4440116;32;34631;-74
2022/03/07 10:17:31;;;;;;;30.58;14.38;;;;;;;0.47;58.08;100135.25;4428798;32;32854;-74
2022/03/07 10:20:20;;;;;;;34.10;15.75;;;;;;;0.11;58.21;100128.97;4431350;32;34456;-72
2022/03/07 10:23:08;;;;;;;30.23;15.98;;;;;;;0.37;57.34;100128.56;4431580;32;34663;-72
2022/03/07 10:26:09;;;;;;;26.17;14.48;;;;;;;0.47;56.97;100127.16;4432203;32;33195;-72
2022/03/07 10:29:04;;;;;;;30.27;15.45;;;;;;;0.03;57.90;100132.81;4430562;32;33936;-72
2022/03/07 10:32:17;;;;;;;28.67;15.00;;;;;;;0.10;58.58;100122.75;4432458;32;34388;-72
2022/03/07 10:35:03;;;;;;;37.63;17.85;;;;;;;0.49;57.75;100119.69;4451990;32;34978;-72
2022/03/07 10:37:50;;;;;;;33.33;17.15;;;;;;;0.23;57.83;100127.12;4441917;32;34279;-73
2022/03/07 10:40:39;;;;;;;38.85;17.80;;;;;;;0.40;57.56;100121.91;4429683;32;35162;-72
2022/03/07 10:43:26;;;;;;;34.35;17.02;;;;;;;0.63;57.12;100110.31;4430790;32;34733;-72
2022/03/07 10:46:25;;;;;;;31.62;15.65;;;;;;;0.82;56.22;100114.50;4429537;32;35501;-72
2022/03/07 10:49:12;;;;;;;35.50;17.20;;;;;;;0.74;56.93;100112.19;4430205;32;34686;-72
2022/03/07 10:51:58;;;;;;;35.78;16.80;;;;;;;0.39;56.63;100096.78;4439679;32;34279;-72
2022/03/07 10:54:44;;;;;;;37.20;18.77;;;;;;;0.64;56.06;100098.47;4438650;32;35227;-73
2022/03/07 10:57:38;;;;;;;34.97;16.62;;;;;;;0.56;55.79;100096.09;4429967;32;36286;-73
2022/03/07 11:00:24;;;;;;;37.45;17.85;;;;;;;0.55;55.91;100094.47;4426534;32;35611;-72
2022/03/07 11:03:16;;;;;;;35.78;18.60;;;;;;;0.87;55.49;100089.53;4430185;32;33209;-73
2022/03/07 11:06:03;;;;;;;34.50;20.15;;;;;;;0.22;56.89;100082.34;4431193;32;34190;-72
2022/03/07 11:08:49;;;;;;;36.75;19.05;;;;;;;0.24;56.96;100074.06;4431263;32;34930;-71
2022/03/07 11:11:36;;;;;;;37.40;18.08;;;;;;;0.08;57.04;100086.31;4430654;32;37961;-72
2022/03/07 11:14:25;;;;;;;34.70;17.98;;;;;;;0.49;56.79;100079.22;4431063;32;35108;-72
2022/03/07 11:17:13;;;;;;;39.30;19.58;;;;;;;0.65;55.83;100070.41;4430516;32;34562;-71
2022/03/07 11:20:00;;;;;;;38.65;21.25;;;;;;;0.52;55.77;100071.50;4431760;32;35377;-71
2022/03/07 11:22:46;;;;;;;36.05;17.42;;;;;;;0.25;56.21;100068.41;4430307;32;34379;-72
2022/03/07 11:25:33;;;;;;;40.03;20.20;;;;;;;0.44;56.32;100055.66;4430590;32;33946;-71
2022/03/07 11:28:25;;;;;;;37.17;19.65;;;;;;;0.34;55.89;100050.87;4429145;32;34289;-72
2022/03/07 11:31:22;;;;;;;39.28;18.95;;;;;;;0.69;55.12;100049.22;4430585;32;34665;-72
2022/03/07 11:34:10;;;;;;;38.78;21.23;;;;;;;0.30;55.88;100052.38;4428338;32;35203;-73
2022/03/07 11:36:56;;;;;;;40.65;23.02;;;;;;;0.30;55.82;100046.97;4439290;32;34216;-73
2022/03/07 11:39:46;;;;;;;36.85;19.23;;;;;;;0.57;55.21;100043.81;4428813;32;34384;-73
2022/03/07 11:42:38;;;;;;;37.35;18.40;;;;;;;0.81;54.25;100040.03;4426570;32;35212;-74
2022/03/07 11:45:24;;;;;;;37.72;16.83;;;;;;;1.03;54.06;100042.12;4417976;32;34591;-73
2022/03/07 11:48:14;;;;;;;36.83;18.30;;;;;;;0.78;54.54;100043.22;4425495;32;34280;-73
2022/03/07 11:51:00;;;;;;;37.78;18.10;;;;;;;0.70;53.96;100027.37;4425014;32;34626;-74
2022/03/07 11:53:48;;;;;;;35.17;18.40;;;;;;;0.82;54.11;100038.16;4421829;32;36063;-75
2022/03/07 11:56:37;;;;;;;38.83;18.23;;;;;;;0.46;54.46;100032.00;4422593;32;34429;-74
2022/03/07 11:59:33;;;;;;;37.97;20.00;;;;;;;0.78;54.45;100027.03;4440301;32;35333;-74
2022/03/07 12:02:19;;;;;;;37.55;18.37;;;;;;;0.41;54.28;100024.59;4423506;32;34638;-73
2022/03/07 12:05:06;;;;;;;74.62;37.63;;;;;;;0.52;54.42;100031.03;4426340;32;34786;-75
2022/03/07 12:07:53;;;;;;;36.42;17.52;;;;;;;0.82;53.73;100032.75;4428160;32;33717;-74
2022/03/07 12:10:53;;;;;;;34.78;19.12;;;;;;;1.08;53.05;100032.25;4439964;32;34078;-76
2022/03/07 12:13:48;;;;;;;34.63;20.77;;;;;;;0.39;54.33;100034.78;4429379;32;35489;-74
2022/03/07 12:16:37;;;;;;;37.95;18.37;;;;;;;0.35;54.66;100030.13;4435781;32;34953;-74
2022/03/07 12:19:23;;;;;;;38.65;18.00;;;;;;;0.38;54.66;100030.47;4428600;32;34192;-74
2022/03/07 12:22:12;;;;;;;33.85;16.52;;;;;;;0.55;54.66;100016.28;4426781;32;34155;-75
2022/03/07 12:24:59;;;;;;;33.65;17.83;;;;;;;1.17;52.74;100015.66;4437208;32;34287;-74
2022/03/07 12:27:55;;;;;;;35.95;17.73;;;;;;;0.78;53.12;100021.62;4419757;32;34846;-73
2022/03/07 12:30:41;;;;;;;37.30;18.08;;;;;;;0.58;54.62;100015.81;4427949;32;35483;-73
2022/03/07 12:33:27;;;;;;;35.53;18.02;;;;;;;0.69;54.09;100012.28;4428539;32;35105;-72
2022/03/07 12:36:15;;;;;;;35.00;17.50;;;;;;;0.89;53.20;99996.50;4436496;32;34279;-74
2022/03/07 12:39:02;;;;;;;35.08;17.80;;;;;;;0.72;53.68;100011.81;4440826;32;35987;-74
2022/03/07 12:41:49;;;;;;;36.33;17.65;;;;;;;1.01;53.52;100001.06;4433281;32;35074;-74
2022/03/07 12:44:39;;;;;;;37.63;17.80;;;;;;;0.89;53.00;100012.69;4432753;32;33218;-73